AirNav   TITAN Aviation Fuels
 
 1454 users online  

CL33 Pauma Valley Air Park
Pauma Valley, California, USA

GOING TO PAUMA VALLEY?


FAA INFORMATION EFFECTIVE 19 MAY 2022

Location

FAA Identifier: CL33
Lat/Long: 33-18-38.1230N 116-59-53.1000W
33-18.635383N 116-59.885000W
33.3105897,-116.9980833
(estimated)
Elevation: 756 ft. / 230 m (estimated)
Variation: 13E (1985)
From city: 1 mile NW of PAUMA VALLEY, CA
Time zone: UTC -7 (UTC -8 during Standard Time)
Zip code: 92061

Airport Operations

Airport use: Private use. Permission required prior to landing
Activation date: 09/1966
Control tower: no
ARTCC: LOS ANGELES CENTER
FSS: SAN DIEGO FLIGHT SERVICE STATION
Attendance: UNATNDD
Wind indicator: yes
Segmented circle: yes

Airport Communications

UNICOM: 122.725
WX AWOS-3P at L18 (13 nm W): 118.425 (760-723-6073)
WX ASOS at RNM (17 nm S): PHONE 760-789-7699
WX AWOS-3 at F70 (17 nm N): 119.025 (951-696-1018)
WX ASOS at CRQ (18 nm SW): PHONE 760-930-0864
WX ASOS at OKB (19 nm W): 127.8 (760-439-9683)

Nearby radio navigation aids

VOR radial/distance  VOR name  Freq  Var
OCNr064/21.5OCEANSIDE VORTAC115.3015E
JLIr281/23.1JULIAN VORTAC114.0015E
HDFr147/(29.5)HOMELAND VOR112.0514E
MZBr005/33.7MISSION BAY VORTAC117.8015E

Airport Services

Airframe service: NONE
Powerplant service: NONE

Runway Information

Runway 11/29

Dimensions: 2700 x 50 ft. / 823 x 15 m
Surface: asphalt
RUNWAY 11  RUNWAY 29
Traffic pattern: leftright

Airport Ownership and Management from official FAA records

Ownership: Privately-owned
Owner: SJS RAINBOW, LLC
3199 STONEFIELD DRIVE
JAMUL, CA 91935
Phone 760-742-3721
FRED CLAREY, CHAIRMAN, PAUMA VALLEY AIRPORT COMMITTEE, 760-305-2277.
Manager: PAUL DEVINE
P.O. BOX 206
PAUMA VALLEY, CA 92061
Phone 760-742-3721
PAUL DEVINE, GENERAL MANAGER. 24 HOUR SECURITY PATROL, SEARCH AND RESCUE CONTACT 760-742-3112.

Airport Operational Statistics

Aircraft based on the field: 8
Single engine airplanes: 6
Multi engine airplanes: 2
    

Additional Remarks

FOR CD CTC LOS ANGELES ARTCC AT 661-575-2079.

Instrument Procedures

There are no published instrument procedures at CL33.

Some nearby airports with instrument procedures:

L18 - Fallbrook Community Airpark (13 nm W)
KRNM - Ramona Airport (17 nm S)
F70 - French Valley Airport (17 nm N)
KCRQ - Mc Clellan-Palomar Airport (18 nm SW)
KNFG - Camp Pendleton MCAS (Munn Field) Airport (18 nm W)
KOKB - Bob Maxwell Memorial Airfield (19 nm W)
 
Loc | Ops | Rwys | IFR | FBO | Links
Com | Nav | Svcs | Stats | Notes

Luxivair - San Bernardino International Airport
 
Area around CL33 (Pauma Valley Air Park)
 
Road maps at: MapQuest Bing Google
 
Aerial photo
WARNING: Photo may not be current or correct
Aerial photo of CL33 (Pauma Valley Air Park)
Do you have a better or more recent aerial photo of Pauma Valley Air Park that you would like to share? If so, please send us your photo.

 
Sectional chart

 
Airport distance calculator
Flying to Pauma Valley Air Park? Find the distance to fly.

From to CL33

Sunrise and sunset
Times for 23-May-2022
 Local
(UTC-7)
 Zulu
(UTC)
Morning civil twilight05:1612:16
Sunrise05:4412:44
Sunset19:4502:45
Evening civil twilight20:1303:13

Current date and time
Zulu (UTC)  23-May-2022 21:53:29
Local (UTC-7)  23-May-2022 14:53:29
 
METAR
KL18 
13nm W 
232135Z AUTO 24008KT 10SM CLR 20/13 A2988 RMK AO2
KNFG 
17nm W 
232119Z 26008KT 10SM SCT017 19/13 A2989 RMK AO2 T01940128 $
KF70 
17nm N 
232135Z AUTO 20010G14KT 10SM CLR 25/12 A2986 RMK AO2
KRNM 
17nm S 
232053Z 26007G16KT 10SM CLR 23/12 A2989 RMK AO2 SLP110 T02330117 56016
KCRQ 
18nm SW 
232053Z 22006KT 10SM OVC011 16/12 A2990 RMK AO2 SLP124 T01560122 58006
KOKB 
19nm W 
232052Z AUTO 26009KT 8SM OVC015 18/13 A2991 RMK AO2 SLP126 T01830128 56006
KNXF 
23nm W 
232056Z AUTO 26009KT 10SM BKN010 OVC015 18/14 A2991 RMK AO2 SLP213 T01780139 56012 $
KHMT 
25nm N 
232135Z AUTO 19007KT 10SM CLR 28/11 A2985 RMK AO2 T02840109
TAF
KNFG 
17nm W 
2315/2415 VRB06KT 9999 OVC015 QNH2988INS BECMG 2318/2320 23010G20KT 9999 FEW015 QNH2982INS BECMG 2403/2405 VRB05KT 9999 OVC010 QNH2979INS T20/2322Z T13/2414Z
KCRQ 
18nm SW 
231739Z 2318/2418 VRB04KT P6SM OVC007 FM232000 24008KT P6SM SCT015 TEMPO 2321/2401 BKN010 FM240100 VRB04KT P6SM OVC007
NOTAMs
Click for the latest NOTAMs
NOTAMs are issued by the DoD/FAA and will open in a separate window not controlled by AirNav.

 

 
 

Would you like to see your business listed on this page?

 If your business provides an interesting product or service to pilots, flight crews, aircraft, or users of the Pauma Valley Air Park, you should consider listing it here.  To start the listing process, click on the button below
 
Add a business
 

Other Pages about Pauma Valley Air Park

www.paumavalleycc.com/...
 
Update a link
 
Copyright © AirNav, LLC. All rights reserved. Privacy Policy  Contact